sensor_id;sensor_type;location;lat;lon;timestamp;P1;durP1;ratioP1;P2;durP2;ratioP2
49978;SDS011;35869;50.990;6.962;2023-06-24T00:04:49;9.27;;;8.27;;
49978;SDS011;35869;50.990;6.962;2023-06-24T00:09:50;10.15;;;7.75;;
49978;SDS011;35869;50.990;6.962;2023-06-24T00:14:50;11.40;;;9.07;;
49978;SDS011;35869;50.990;6.962;2023-06-24T00:19:50;8.82;;;7.88;;
49978;SDS011;35869;50.990;6.962;2023-06-24T00:24:50;9.88;;;8.85;;
49978;SDS011;35869;50.990;6.962;2023-06-24T00:29:51;9.82;;;8.82;;
49978;SDS011;35869;50.990;6.962;2023-06-24T00:34:51;10.35;;;8.98;;
49978;SDS011;35869;50.990;6.962;2023-06-24T00:39:51;14.25;;;8.80;;
49978;SDS011;35869;50.990;6.962;2023-06-24T00:44:51;13.95;;;8.68;;
49978;SDS011;35869;50.990;6.962;2023-06-24T00:49:51;9.05;;;8.07;;
49978;SDS011;35869;50.990;6.962;2023-06-24T00:54:52;10.52;;;9.02;;
49978;SDS011;35869;50.990;6.962;2023-06-24T00:59:52;9.18;;;8.27;;
49978;SDS011;35869;50.990;6.962;2023-06-24T01:04:52;10.50;;;7.93;;
49978;SDS011;35869;50.990;6.962;2023-06-24T01:09:53;11.55;;;8.07;;
49978;SDS011;35869;50.990;6.962;2023-06-24T01:14:53;9.85;;;8.70;;
49978;SDS011;35869;50.990;6.962;2023-06-24T01:35:59;9.52;;;8.40;;
49978;SDS011;35869;50.990;6.962;2023-06-24T01:41:00;9.43;;;7.88;;
49978;SDS011;35869;50.990;6.962;2023-06-24T01:46:03;9.20;;;8.35;;
49978;SDS011;35869;50.990;6.962;2023-06-24T01:51:15;9.57;;;8.57;;
49978;SDS011;35869;50.990;6.962;2023-06-24T01:56:18;9.02;;;8.13;;
49978;SDS011;35869;50.990;6.962;2023-06-24T02:01:21;11.15;;;8.90;;
49978;SDS011;35869;50.990;6.962;2023-06-24T02:06:24;9.07;;;7.90;;
49978;SDS011;35869;50.990;6.962;2023-06-24T02:11:26;10.35;;;9.07;;
49978;SDS011;35869;50.990;6.962;2023-06-24T02:16:29;9.90;;;8.82;;
49978;SDS011;35869;50.990;6.962;2023-06-24T02:21:32;11.00;;;8.18;;
49978;SDS011;35869;50.990;6.962;2023-06-24T02:26:35;11.10;;;9.57;;
49978;SDS011;35869;50.990;6.962;2023-06-24T02:31:37;9.85;;;8.77;;
49978;SDS011;35869;50.990;6.962;2023-06-24T02:36:37;10.90;;;9.43;;
49978;SDS011;35869;50.990;6.962;2023-06-24T02:41:37;12.43;;;9.10;;
49978;SDS011;35869;50.990;6.962;2023-06-24T02:46:37;10.50;;;8.97;;
49978;SDS011;35869;50.990;6.962;2023-06-24T02:51:39;11.05;;;8.95;;
49978;SDS011;35869;50.990;6.962;2023-06-24T02:56:40;9.57;;;8.30;;
49978;SDS011;35869;50.990;6.962;2023-06-24T03:01:41;8.98;;;8.07;;
49978;SDS011;35869;50.990;6.962;2023-06-24T03:06:42;10.43;;;8.18;;
49978;SDS011;35869;50.990;6.962;2023-06-24T03:11:44;9.45;;;8.43;;
49978;SDS011;35869;50.990;6.962;2023-06-24T03:16:44;8.93;;;8.00;;
49978;SDS011;35869;50.990;6.962;2023-06-24T03:21:45;8.85;;;7.95;;
49978;SDS011;35869;50.990;6.962;2023-06-24T03:26:45;9.77;;;8.60;;
49978;SDS011;35869;50.990;6.962;2023-06-24T03:31:45;9.82;;;8.07;;
49978;SDS011;35869;50.990;6.962;2023-06-24T03:36:46;10.95;;;8.18;;
49978;SDS011;35869;50.990;6.962;2023-06-24T03:41:46;8.88;;;8.02;;
49978;SDS011;35869;50.990;6.962;2023-06-24T03:46:46;11.00;;;8.30;;
49978;SDS011;35869;50.990;6.962;2023-06-24T03:51:46;11.82;;;8.90;;
49978;SDS011;35869;50.990;6.962;2023-06-24T03:56:47;11.60;;;8.53;;
49978;SDS011;35869;50.990;6.962;2023-06-24T04:01:47;10.33;;;8.77;;
49978;SDS011;35869;50.990;6.962;2023-06-24T04:06:47;8.85;;;7.78;;
49978;SDS011;35869;50.990;6.962;2023-06-24T04:11:47;10.15;;;7.97;;
49978;SDS011;35869;50.990;6.962;2023-06-24T04:16:47;10.13;;;8.93;;
49978;SDS011;35869;50.990;6.962;2023-06-24T04:21:48;9.50;;;8.50;;
49978;SDS011;35869;50.990;6.962;2023-06-24T04:26:48;9.95;;;8.18;;
49978;SDS011;35869;50.990;6.962;2023-06-24T04:31:48;12.00;;;8.13;;
49978;SDS011;35869;50.990;6.962;2023-06-24T04:36:48;9.80;;;8.47;;
49978;SDS011;35869;50.990;6.962;2023-06-24T04:41:48;9.23;;;8.30;;
49978;SDS011;35869;50.990;6.962;2023-06-24T04:46:49;10.68;;;9.25;;
49978;SDS011;35869;50.990;6.962;2023-06-24T04:51:49;9.60;;;8.40;;
49978;SDS011;35869;50.990;6.962;2023-06-24T04:56:49;10.23;;;9.17;;
49978;SDS011;35869;50.990;6.962;2023-06-24T05:01:49;12.43;;;9.17;;
49978;SDS011;35869;50.990;6.962;2023-06-24T05:06:49;10.27;;;9.03;;
49978;SDS011;35869;50.990;6.962;2023-06-24T05:11:50;9.57;;;8.57;;
49978;SDS011;35869;50.990;6.962;2023-06-24T05:16:50;11.23;;;9.30;;
49978;SDS011;35869;50.990;6.962;2023-06-24T05:21:50;11.53;;;9.13;;
49978;SDS011;35869;50.990;6.962;2023-06-24T05:26:50;10.95;;;9.00;;
49978;SDS011;35869;50.990;6.962;2023-06-24T05:31:51;10.48;;;9.18;;
49978;SDS011;35869;50.990;6.962;2023-06-24T05:36:51;10.47;;;8.90;;
49978;SDS011;35869;50.990;6.962;2023-06-24T05:41:51;10.43;;;9.32;;
49978;SDS011;35869;50.990;6.962;2023-06-24T05:46:52;10.10;;;8.85;;
49978;SDS011;35869;50.990;6.962;2023-06-24T05:51:52;10.70;;;9.60;;
49978;SDS011;35869;50.990;6.962;2023-06-24T05:56:52;10.63;;;9.43;;
49978;SDS011;35869;50.990;6.962;2023-06-24T06:01:52;12.65;;;8.77;;
49978;SDS011;35869;50.990;6.962;2023-06-24T06:06:52;9.95;;;8.75;;
49978;SDS011;35869;50.990;6.962;2023-06-24T06:11:53;10.87;;;8.83;;
49978;SDS011;35869;50.990;6.962;2023-06-24T06:16:53;13.33;;;8.70;;
49978;SDS011;35869;50.990;6.962;2023-06-24T06:21:53;10.48;;;8.88;;
49978;SDS011;35869;50.990;6.962;2023-06-24T06:26:53;11.27;;;8.63;;
49978;SDS011;35869;50.990;6.962;2023-06-24T06:31:54;11.77;;;9.23;;
49978;SDS011;35869;50.990;6.962;2023-06-24T06:36:54;13.07;;;9.45;;
49978;SDS011;35869;50.990;6.962;2023-06-24T06:41:54;11.13;;;9.82;;
49978;SDS011;35869;50.990;6.962;2023-06-24T06:46:54;11.02;;;9.18;;
49978;SDS011;35869;50.990;6.962;2023-06-24T06:51:54;13.48;;;9.07;;
49978;SDS011;35869;50.990;6.962;2023-06-24T06:56:54;13.23;;;9.33;;
49978;SDS011;35869;50.990;6.962;2023-06-24T07:01:55;14.93;;;8.90;;
49978;SDS011;35869;50.990;6.962;2023-06-24T07:06:55;13.55;;;9.35;;
49978;SDS011;35869;50.990;6.962;2023-06-24T07:11:55;10.02;;;7.75;;
49978;SDS011;35869;50.990;6.962;2023-06-24T07:16:55;12.88;;;8.00;;
49978;SDS011;35869;50.990;6.962;2023-06-24T07:21:56;8.65;;;7.47;;
49978;SDS011;35869;50.990;6.962;2023-06-24T07:26:56;9.15;;;7.03;;
49978;SDS011;35869;50.990;6.962;2023-06-24T07:31:56;8.52;;;7.00;;
49978;SDS011;35869;50.990;6.962;2023-06-24T07:36:56;12.10;;;6.70;;
49978;SDS011;35869;50.990;6.962;2023-06-24T07:41:56;8.70;;;7.75;;
49978;SDS011;35869;50.990;6.962;2023-06-24T07:46:57;7.82;;;6.70;;
49978;SDS011;35869;50.990;6.962;2023-06-24T07:51:57;8.25;;;5.57;;
49978;SDS011;35869;50.990;6.962;2023-06-24T07:56:57;7.88;;;5.50;;
49978;SDS011;35869;50.990;6.962;2023-06-24T08:01:57;8.05;;;5.50;;
49978;SDS011;35869;50.990;6.962;2023-06-24T08:06:57;7.90;;;5.85;;
49978;SDS011;35869;50.990;6.962;2023-06-24T08:11:58;9.38;;;5.78;;
49978;SDS011;35869;50.990;6.962;2023-06-24T08:16:58;10.05;;;5.38;;
49978;SDS011;35869;50.990;6.962;2023-06-24T08:21:58;8.48;;;5.30;;
49978;SDS011;35869;50.990;6.962;2023-06-24T08:26:58;7.50;;;5.70;;
49978;SDS011;35869;50.990;6.962;2023-06-24T08:31:58;7.10;;;5.65;;
49978;SDS011;35869;50.990;6.962;2023-06-24T08:36:59;10.02;;;6.15;;
49978;SDS011;35869;50.990;6.962;2023-06-24T08:41:59;10.40;;;6.53;;
49978;SDS011;35869;50.990;6.962;2023-06-24T08:46:59;8.27;;;5.57;;
49978;SDS011;35869;50.990;6.962;2023-06-24T08:52:04;7.95;;;4.90;;
49978;SDS011;35869;50.990;6.962;2023-06-24T08:57:11;10.30;;;6.47;;
49978;SDS011;35869;50.990;6.962;2023-06-24T09:02:11;11.45;;;7.00;;
49978;SDS011;35869;50.990;6.962;2023-06-24T09:07:11;11.70;;;7.97;;
49978;SDS011;35869;50.990;6.962;2023-06-24T09:12:12;8.65;;;7.25;;
49978;SDS011;35869;50.990;6.962;2023-06-24T09:17:14;8.00;;;6.07;;
49978;SDS011;35869;50.990;6.962;2023-06-24T09:22:14;8.65;;;6.75;;
49978;SDS011;35869;50.990;6.962;2023-06-24T09:27:15;9.93;;;6.32;;
49978;SDS011;35869;50.990;6.962;2023-06-24T09:32:17;6.63;;;4.95;;
49978;SDS011;35869;50.990;6.962;2023-06-24T09:37:21;8.15;;;5.13;;
49978;SDS011;35869;50.990;6.962;2023-06-24T09:42:21;8.20;;;6.03;;
49978;SDS011;35869;50.990;6.962;2023-06-24T09:47:22;8.55;;;4.57;;
49978;SDS011;35869;50.990;6.962;2023-06-24T09:52:22;8.50;;;4.78;;
49978;SDS011;35869;50.990;6.962;2023-06-24T09:57:28;5.55;;;4.55;;
49978;SDS011;35869;50.990;6.962;2023-06-24T10:02:31;6.85;;;4.60;;
49978;SDS011;35869;50.990;6.962;2023-06-24T10:07:32;6.07;;;4.00;;
49978;SDS011;35869;50.990;6.962;2023-06-24T10:12:34;4.22;;;3.63;;
49978;SDS011;35869;50.990;6.962;2023-06-24T10:17:36;5.40;;;3.72;;
49978;SDS011;35869;50.990;6.962;2023-06-24T10:22:37;6.60;;;4.13;;
49978;SDS011;35869;50.990;6.962;2023-06-24T10:32:40;4.03;;;3.28;;
49978;SDS011;35869;50.990;6.962;2023-06-24T10:37:49;5.90;;;4.00;;
49978;SDS011;35869;50.990;6.962;2023-06-24T10:42:54;4.97;;;4.15;;
49978;SDS011;35869;50.990;6.962;2023-06-24T10:47:54;2.95;;;2.70;;
49978;SDS011;35869;50.990;6.962;2023-06-24T10:52:55;4.43;;;3.70;;
49978;SDS011;35869;50.990;6.962;2023-06-24T10:57:55;4.90;;;3.55;;
49978;SDS011;35869;50.990;6.962;2023-06-24T11:03:10;5.13;;;2.88;;
49978;SDS011;35869;50.990;6.962;2023-06-24T11:08:12;5.05;;;3.10;;
49978;SDS011;35869;50.990;6.962;2023-06-24T11:13:12;2.57;;;2.33;;
49978;SDS011;35869;50.990;6.962;2023-06-24T11:18:13;3.33;;;2.22;;
49978;SDS011;35869;50.990;6.962;2023-06-24T11:23:13;7.90;;;3.15;;
49978;SDS011;35869;50.990;6.962;2023-06-24T11:28:14;4.28;;;2.47;;
49978;SDS011;35869;50.990;6.962;2023-06-24T11:33:26;4.28;;;3.25;;
49978;SDS011;35869;50.990;6.962;2023-06-24T11:38:29;3.50;;;3.20;;
49978;SDS011;35869;50.990;6.962;2023-06-24T11:43:29;4.30;;;3.10;;
49978;SDS011;35869;50.990;6.962;2023-06-24T11:48:29;5.57;;;3.08;;
49978;SDS011;35869;50.990;6.962;2023-06-24T11:53:30;4.60;;;2.65;;
49978;SDS011;35869;50.990;6.962;2023-06-24T11:58:41;4.60;;;3.05;;
49978;SDS011;35869;50.990;6.962;2023-06-24T12:03:43;3.15;;;2.85;;
49978;SDS011;35869;50.990;6.962;2023-06-24T12:08:44;3.35;;;2.53;;
49978;SDS011;35869;50.990;6.962;2023-06-24T12:13:44;5.63;;;3.03;;
49978;SDS011;35869;50.990;6.962;2023-06-24T12:18:44;5.25;;;3.05;;
49978;SDS011;35869;50.990;6.962;2023-06-24T12:23:44;4.95;;;2.88;;
49978;SDS011;35869;50.990;6.962;2023-06-24T12:28:45;5.22;;;2.80;;
49978;SDS011;35869;50.990;6.962;2023-06-24T12:33:45;4.55;;;2.80;;
49978;SDS011;35869;50.990;6.962;2023-06-24T12:38:45;4.90;;;2.88;;
49978;SDS011;35869;50.990;6.962;2023-06-24T12:43:45;4.43;;;3.63;;
49978;SDS011;35869;50.990;6.962;2023-06-24T12:48:45;6.43;;;3.83;;
49978;SDS011;35869;50.990;6.962;2023-06-24T12:53:46;5.13;;;3.10;;
49978;SDS011;35869;50.990;6.962;2023-06-24T12:58:46;3.03;;;2.72;;
49978;SDS011;35869;50.990;6.962;2023-06-24T13:03:46;3.75;;;3.05;;
49978;SDS011;35869;50.990;6.962;2023-06-24T13:08:46;11.50;;;3.03;;
49978;SDS011;35869;50.990;6.962;2023-06-24T13:13:46;4.70;;;3.30;;
49978;SDS011;35869;50.990;6.962;2023-06-24T13:18:47;7.45;;;3.40;;
49978;SDS011;35869;50.990;6.962;2023-06-24T13:23:48;4.13;;;2.75;;
49978;SDS011;35869;50.990;6.962;2023-06-24T13:28:48;5.00;;;2.75;;
49978;SDS011;35869;50.990;6.962;2023-06-24T13:33:48;4.35;;;2.72;;
49978;SDS011;35869;50.990;6.962;2023-06-24T13:38:49;3.45;;;2.67;;
49978;SDS011;35869;50.990;6.962;2023-06-24T13:43:49;4.47;;;2.58;;
49978;SDS011;35869;50.990;6.962;2023-06-24T13:48:50;3.25;;;2.38;;
49978;SDS011;35869;50.990;6.962;2023-06-24T13:53:51;2.60;;;2.40;;
49978;SDS011;35869;50.990;6.962;2023-06-24T13:58:52;3.53;;;2.50;;
49978;SDS011;35869;50.990;6.962;2023-06-24T14:03:53;3.00;;;2.70;;
49978;SDS011;35869;50.990;6.962;2023-06-24T14:08:54;5.22;;;2.53;;
49978;SDS011;35869;50.990;6.962;2023-06-24T14:13:55;3.47;;;2.50;;
49978;SDS011;35869;50.990;6.962;2023-06-24T14:18:55;2.83;;;2.10;;
49978;SDS011;35869;50.990;6.962;2023-06-24T14:23:55;2.50;;;2.28;;
49978;SDS011;35869;50.990;6.962;2023-06-24T14:28:55;2.88;;;2.20;;
49978;SDS011;35869;50.990;6.962;2023-06-24T14:33:55;4.07;;;2.20;;
49978;SDS011;35869;50.990;6.962;2023-06-24T14:38:56;2.37;;;2.17;;
49978;SDS011;35869;50.990;6.962;2023-06-24T14:43:56;2.50;;;2.20;;
49978;SDS011;35869;50.990;6.962;2023-06-24T14:48:56;2.55;;;1.83;;
49978;SDS011;35869;50.990;6.962;2023-06-24T14:53:56;2.72;;;2.10;;
49978;SDS011;35869;50.990;6.962;2023-06-24T14:58:57;2.38;;;1.92;;
49978;SDS011;35869;50.990;6.962;2023-06-24T15:03:57;1.80;;;1.53;;
49978;SDS011;35869;50.990;6.962;2023-06-24T15:08:57;2.05;;;1.70;;
49978;SDS011;35869;50.990;6.962;2023-06-24T15:13:57;2.15;;;1.60;;
49978;SDS011;35869;50.990;6.962;2023-06-24T15:18:58;2.38;;;2.15;;
49978;SDS011;35869;50.990;6.962;2023-06-24T15:23:58;2.22;;;1.73;;
49978;SDS011;35869;50.990;6.962;2023-06-24T15:28:58;3.65;;;1.92;;
49978;SDS011;35869;50.990;6.962;2023-06-24T15:33:58;1.95;;;1.75;;
49978;SDS011;35869;50.990;6.962;2023-06-24T15:38:58;2.35;;;1.67;;
49978;SDS011;35869;50.990;6.962;2023-06-24T15:43:59;2.08;;;1.88;;
49978;SDS011;35869;50.990;6.962;2023-06-24T15:48:59;3.22;;;1.90;;
49978;SDS011;35869;50.990;6.962;2023-06-24T15:53:59;3.03;;;1.90;;
49978;SDS011;35869;50.990;6.962;2023-06-24T15:59:00;3.05;;;1.90;;
49978;SDS011;35869;50.990;6.962;2023-06-24T16:04:00;1.90;;;1.55;;
49978;SDS011;35869;50.990;6.962;2023-06-24T16:09:00;2.95;;;2.03;;
49978;SDS011;35869;50.990;6.962;2023-06-24T16:14:00;2.63;;;1.77;;
49978;SDS011;35869;50.990;6.962;2023-06-24T16:19:01;2.25;;;1.85;;
49978;SDS011;35869;50.990;6.962;2023-06-24T16:24:01;2.03;;;1.55;;
49978;SDS011;35869;50.990;6.962;2023-06-24T16:29:01;2.75;;;2.00;;
49978;SDS011;35869;50.990;6.962;2023-06-24T16:34:01;5.35;;;2.15;;
49978;SDS011;35869;50.990;6.962;2023-06-24T16:39:02;3.58;;;1.60;;
49978;SDS011;35869;50.990;6.962;2023-06-24T16:44:02;2.47;;;1.70;;
49978;SDS011;35869;50.990;6.962;2023-06-24T16:49:02;1.80;;;1.60;;
49978;SDS011;35869;50.990;6.962;2023-06-24T16:54:02;1.83;;;1.38;;
49978;SDS011;35869;50.990;6.962;2023-06-24T16:59:03;1.43;;;1.33;;
49978;SDS011;35869;50.990;6.962;2023-06-24T17:04:03;2.08;;;1.60;;
49978;SDS011;35869;50.990;6.962;2023-06-24T17:09:04;4.15;;;1.67;;
49978;SDS011;35869;50.990;6.962;2023-06-24T17:14:04;2.72;;;1.70;;
49978;SDS011;35869;50.990;6.962;2023-06-24T17:19:04;3.78;;;1.60;;
49978;SDS011;35869;50.990;6.962;2023-06-24T17:24:05;1.63;;;1.42;;
49978;SDS011;35869;50.990;6.962;2023-06-24T17:29:05;2.15;;;1.92;;
49978;SDS011;35869;50.990;6.962;2023-06-24T17:34:06;2.47;;;1.70;;
49978;SDS011;35869;50.990;6.962;2023-06-24T17:39:06;1.93;;;1.67;;
49978;SDS011;35869;50.990;6.962;2023-06-24T17:44:06;1.60;;;1.50;;
49978;SDS011;35869;50.990;6.962;2023-06-24T17:49:06;1.77;;;1.60;;
49978;SDS011;35869;50.990;6.962;2023-06-24T17:54:07;2.05;;;1.50;;
49978;SDS011;35869;50.990;6.962;2023-06-24T17:59:07;1.43;;;1.20;;
49978;SDS011;35869;50.990;6.962;2023-06-24T18:04:08;2.17;;;1.63;;
49978;SDS011;35869;50.990;6.962;2023-06-24T18:09:08;2.90;;;1.60;;
49978;SDS011;35869;50.990;6.962;2023-06-24T18:14:08;1.50;;;1.40;;
49978;SDS011;35869;50.990;6.962;2023-06-24T18:19:08;2.35;;;1.90;;
49978;SDS011;35869;50.990;6.962;2023-06-24T18:24:09;3.08;;;1.65;;
49978;SDS011;35869;50.990;6.962;2023-06-24T18:34:09;2.47;;;1.53;;
49978;SDS011;35869;50.990;6.962;2023-06-24T18:39:10;1.83;;;1.50;;
49978;SDS011;35869;50.990;6.962;2023-06-24T18:49:11;1.80;;;1.23;;
49978;SDS011;35869;50.990;6.962;2023-06-24T18:59:11;1.27;;;1.17;;
49978;SDS011;35869;50.990;6.962;2023-06-24T19:09:12;3.80;;;1.55;;
49978;SDS011;35869;50.990;6.962;2023-06-24T19:14:12;2.95;;;1.27;;
49978;SDS011;35869;50.990;6.962;2023-06-24T19:19:12;2.05;;;1.38;;
49978;SDS011;35869;50.990;6.962;2023-06-24T19:24:12;1.50;;;1.40;;
49978;SDS011;35869;50.990;6.962;2023-06-24T19:29:13;2.33;;;1.90;;
49978;SDS011;35869;50.990;6.962;2023-06-24T19:34:13;1.60;;;1.50;;
49978;SDS011;35869;50.990;6.962;2023-06-24T19:39:13;2.97;;;1.87;;
49978;SDS011;35869;50.990;6.962;2023-06-24T19:44:13;3.20;;;2.35;;
49978;SDS011;35869;50.990;6.962;2023-06-24T19:49:14;2.45;;;2.25;;
49978;SDS011;35869;50.990;6.962;2023-06-24T19:54:14;2.60;;;2.10;;
49978;SDS011;35869;50.990;6.962;2023-06-24T19:59:14;2.97;;;2.60;;
49978;SDS011;35869;50.990;6.962;2023-06-24T20:04:14;3.28;;;2.47;;
49978;SDS011;35869;50.990;6.962;2023-06-24T20:09:14;3.05;;;2.38;;
49978;SDS011;35869;50.990;6.962;2023-06-24T20:14:15;2.83;;;2.30;;
49978;SDS011;35869;50.990;6.962;2023-06-24T20:19:15;3.92;;;2.63;;
49978;SDS011;35869;50.990;6.962;2023-06-24T20:24:15;2.67;;;2.33;;
49978;SDS011;35869;50.990;6.962;2023-06-24T20:29:15;3.92;;;2.70;;
49978;SDS011;35869;50.990;6.962;2023-06-24T20:34:15;3.45;;;2.42;;
49978;SDS011;35869;50.990;6.962;2023-06-24T20:39:16;3.55;;;2.72;;
49978;SDS011;35869;50.990;6.962;2023-06-24T20:44:16;5.15;;;2.85;;
49978;SDS011;35869;50.990;6.962;2023-06-24T20:49:16;3.72;;;3.30;;
49978;SDS011;35869;50.990;6.962;2023-06-24T20:54:16;3.35;;;2.75;;
49978;SDS011;35869;50.990;6.962;2023-06-24T20:59:16;4.25;;;2.72;;
49978;SDS011;35869;50.990;6.962;2023-06-24T21:04:17;3.60;;;2.92;;
49978;SDS011;35869;50.990;6.962;2023-06-24T21:09:17;4.75;;;2.50;;
49978;SDS011;35869;50.990;6.962;2023-06-24T21:14:17;3.63;;;2.50;;
49978;SDS011;35869;50.990;6.962;2023-06-24T21:19:17;3.42;;;2.83;;
49978;SDS011;35869;50.990;6.962;2023-06-24T21:24:18;3.35;;;2.95;;
49978;SDS011;35869;50.990;6.962;2023-06-24T21:29:18;4.60;;;2.72;;
49978;SDS011;35869;50.990;6.962;2023-06-24T21:34:18;4.50;;;3.10;;
49978;SDS011;35869;50.990;6.962;2023-06-24T21:39:18;4.95;;;2.95;;
49978;SDS011;35869;50.990;6.962;2023-06-24T21:44:18;3.00;;;2.35;;
49978;SDS011;35869;50.990;6.962;2023-06-24T21:49:19;4.05;;;2.70;;
49978;SDS011;35869;50.990;6.962;2023-06-24T21:54:19;4.38;;;3.28;;
49978;SDS011;35869;50.990;6.962;2023-06-24T21:59:19;4.97;;;3.55;;
49978;SDS011;35869;50.990;6.962;2023-06-24T22:04:19;4.93;;;3.95;;
49978;SDS011;35869;50.990;6.962;2023-06-24T22:09:20;5.85;;;3.45;;
49978;SDS011;35869;50.990;6.962;2023-06-24T22:14:20;4.00;;;3.15;;
49978;SDS011;35869;50.990;6.962;2023-06-24T22:19:20;4.93;;;3.15;;
49978;SDS011;35869;50.990;6.962;2023-06-24T22:24:20;5.18;;;3.60;;
49978;SDS011;35869;50.990;6.962;2023-06-24T22:29:20;6.47;;;3.20;;
49978;SDS011;35869;50.990;6.962;2023-06-24T22:34:20;5.80;;;3.50;;
49978;SDS011;35869;50.990;6.962;2023-06-24T22:39:21;4.40;;;3.42;;
49978;SDS011;35869;50.990;6.962;2023-06-24T22:44:21;5.00;;;3.47;;
49978;SDS011;35869;50.990;6.962;2023-06-24T22:49:21;4.80;;;3.70;;
49978;SDS011;35869;50.990;6.962;2023-06-24T22:54:21;3.42;;;3.10;;
49978;SDS011;35869;50.990;6.962;2023-06-24T22:59:22;4.32;;;2.85;;
49978;SDS011;35869;50.990;6.962;2023-06-24T23:04:22;4.68;;;3.20;;
49978;SDS011;35869;50.990;6.962;2023-06-24T23:09:22;4.63;;;3.30;;
49978;SDS011;35869;50.990;6.962;2023-06-24T23:14:23;3.95;;;3.33;;
49978;SDS011;35869;50.990;6.962;2023-06-24T23:19:23;4.67;;;3.80;;
49978;SDS011;35869;50.990;6.962;2023-06-24T23:24:24;5.10;;;3.72;;
49978;SDS011;35869;50.990;6.962;2023-06-24T23:29:25;4.50;;;3.30;;
49978;SDS011;35869;50.990;6.962;2023-06-24T23:34:26;4.07;;;2.95;;
49978;SDS011;35869;50.990;6.962;2023-06-24T23:39:27;3.40;;;3.07;;
49978;SDS011;35869;50.990;6.962;2023-06-24T23:44:27;4.57;;;3.20;;
49978;SDS011;35869;50.990;6.962;2023-06-24T23:49:28;3.22;;;2.80;;
49978;SDS011;35869;50.990;6.962;2023-06-24T23:54:28;4.20;;;3.58;;
49978;SDS011;35869;50.990;6.962;2023-06-24T23:59:28;6.43;;;5.00;;
